createdAt,value
2023-03-21T00:00:56.346Z,0.92
2023-03-21T00:03:25.090Z,0.94
2023-03-21T00:05:56.941Z,0.92
2023-03-21T00:08:28.087Z,0.90
2023-03-21T00:11:02.253Z,0.92
2023-03-21T00:13:33.429Z,0.96
2023-03-21T00:16:21.536Z,0.99
2023-03-21T00:18:55.580Z,1.00
2023-03-21T00:21:55.317Z,0.98
2023-03-21T00:24:23.162Z,0.95
2023-03-21T00:26:52.022Z,0.98
2023-03-21T00:29:21.046Z,1.03
2023-03-21T00:31:51.266Z,1.09
2023-03-21T00:34:26.926Z,1.09
2023-03-21T00:37:07.586Z,1.08
2023-03-21T00:39:36.606Z,1.05
2023-03-21T00:42:07.520Z,1.06
2023-03-21T00:44:40.710Z,1.13
2023-03-21T00:47:10.145Z,1.19
2023-03-21T00:49:41.871Z,1.20
2023-03-21T00:52:18.594Z,1.18
2023-03-21T00:54:52.863Z,1.15
2023-03-21T00:57:29.327Z,1.16
2023-03-21T01:00:08.067Z,1.21
2023-03-21T01:02:43.486Z,1.25
2023-03-21T01:05:11.977Z,1.27
2023-03-21T01:07:47.842Z,1.28
2023-03-21T01:10:17.976Z,1.25
2023-03-21T01:12:49.549Z,1.24
2023-03-21T01:15:18.717Z,1.27
2023-03-21T01:17:47.804Z,1.29
2023-03-21T01:20:16.898Z,1.29
2023-03-21T01:22:44.969Z,1.24
2023-03-21T01:25:22.276Z,1.19
2023-03-21T01:27:51.748Z,1.16
2023-03-21T01:30:23.901Z,1.17
2023-03-21T01:32:53.644Z,1.17
2023-03-21T01:35:24.178Z,1.16
2023-03-21T01:37:53.269Z,1.13
2023-03-21T01:40:24.258Z,1.11
2023-03-21T01:42:56.375Z,1.11
2023-03-21T01:46:03.080Z,1.12
2023-03-21T01:49:05.022Z,1.11
2023-03-21T01:51:37.546Z,1.03
2023-03-21T01:54:06.999Z,0.96
2023-03-21T01:56:37.744Z,0.92
2023-03-21T01:59:33.045Z,0.92
2023-03-21T02:02:18.457Z,0.92
2023-03-21T02:05:01.453Z,0.87
2023-03-21T02:07:35.946Z,0.79
2023-03-21T02:10:11.413Z,0.73
2023-03-21T02:12:43.173Z,0.68
2023-03-21T02:15:12.162Z,0.67
2023-03-21T02:18:32.249Z,0.68
2023-03-21T02:21:16.098Z,0.68
2023-03-21T02:24:25.449Z,0.67
2023-03-21T02:27:07.719Z,0.64
2023-03-21T02:30:14.913Z,0.58
2023-03-21T02:32:57.547Z,0.57
2023-03-21T02:35:34.056Z,0.58
2023-03-21T02:38:15.304Z,0.62
2023-03-21T02:40:54.121Z,0.63
2023-03-21T02:43:53.528Z,0.59
2023-03-21T02:46:33.423Z,0.52
2023-03-21T02:49:18.342Z,0.46
2023-03-21T02:51:51.232Z,0.46
2023-03-21T02:54:32.596Z,0.46
2023-03-21T02:57:06.635Z,0.49
2023-03-21T02:59:44.542Z,0.50
2023-03-21T03:02:23.329Z,0.51
2023-03-21T03:04:51.635Z,0.52
2023-03-21T03:07:32.712Z,0.51
2023-03-21T03:10:01.138Z,0.51
2023-03-21T03:13:01.533Z,0.53
2023-03-21T03:16:05.403Z,0.53
2023-03-21T03:18:54.198Z,0.47
2023-03-21T03:21:32.698Z,0.42
2023-03-21T03:24:17.208Z,0.39
2023-03-21T03:26:53.631Z,0.39
2023-03-21T03:29:24.505Z,0.40
2023-03-21T03:32:30.498Z,0.40
2023-03-21T03:34:59.522Z,0.37
2023-03-21T03:37:34.476Z,0.32
2023-03-21T03:40:06.596Z,0.29
2023-03-21T03:42:37.007Z,0.31
2023-03-21T03:45:15.578Z,0.33
2023-03-21T03:47:59.249Z,0.32
2023-03-21T03:51:11.306Z,0.28
2023-03-21T03:54:14.424Z,0.18
2023-03-21T03:56:42.777Z,0.11
2023-03-21T03:59:14.436Z,0.10
2023-03-21T04:02:01.212Z,0.16
2023-03-21T04:04:35.240Z,0.21
2023-03-21T04:07:03.951Z,0.22
2023-03-21T04:09:43.489Z,0.22
2023-03-21T04:12:15.675Z,0.18
2023-03-21T04:14:57.054Z,0.13
2023-03-21T04:17:32.383Z,0.04
2023-03-21T04:20:11.328Z,-0.01
2023-03-21T04:22:45.434Z,-0.01
2023-03-21T04:25:30.672Z,0.02
2023-03-21T04:28:02.462Z,0.03
2023-03-21T04:30:54.978Z,0.01
2023-03-21T04:33:29.425Z,-0.03
2023-03-21T04:35:59.384Z,-0.06
2023-03-21T04:38:31.710Z,-0.03
2023-03-21T04:41:06.690Z,0.06
2023-03-21T04:43:39.631Z,0.15
2023-03-21T04:46:10.707Z,0.23
2023-03-21T04:48:43.660Z,0.30
2023-03-21T04:51:14.097Z,0.33
2023-03-21T04:53:46.050Z,0.37
2023-03-21T04:56:20.776Z,0.41
2023-03-21T04:58:49.566Z,0.48
2023-03-21T05:01:21.762Z,0.58
2023-03-21T05:03:54.973Z,0.71
2023-03-21T05:06:24.358Z,0.81
2023-03-21T05:08:52.601Z,0.90
2023-03-21T05:11:26.102Z,0.99
2023-03-21T05:13:54.383Z,1.07
2023-03-21T05:16:27.031Z,1.14
2023-03-21T05:18:59.896Z,1.28
2023-03-21T05:21:34.468Z,1.45
2023-03-21T05:24:03.817Z,1.64
2023-03-21T05:26:35.832Z,1.82
2023-03-21T05:29:14.043Z,1.98
2023-03-21T05:31:45.290Z,2.12
2023-03-21T05:34:15.000Z,2.27
2023-03-21T05:36:48.913Z,2.45
2023-03-21T05:39:18.443Z,2.67
2023-03-21T05:41:57.134Z,2.89
2023-03-21T05:44:26.435Z,3.08
2023-03-21T05:46:56.366Z,3.24
2023-03-21T05:49:29.135Z,3.38
2023-03-21T05:52:05.503Z,3.57
2023-03-21T05:54:37.282Z,3.79
2023-03-21T05:57:06.379Z,4.00
2023-03-21T05:59:52.663Z,4.18
2023-03-21T06:02:23.339Z,4.32
2023-03-21T06:04:51.768Z,4.46
2023-03-21T06:07:32.041Z,4.63
2023-03-21T06:10:01.841Z,4.82
2023-03-21T06:12:32.576Z,5.00
2023-03-21T06:15:09.195Z,5.15
2023-03-21T06:17:47.152Z,5.25
2023-03-21T06:20:17.069Z,5.38
2023-03-21T06:23:02.740Z,5.60
2023-03-21T06:25:36.403Z,5.83
2023-03-21T06:28:08.019Z,6.02
2023-03-21T06:30:40.691Z,6.17
2023-03-21T06:34:12.048Z,6.35
2023-03-21T06:36:45.042Z,6.50
2023-03-21T06:39:16.280Z,6.70
2023-03-21T06:41:45.276Z,6.86
2023-03-21T06:44:15.083Z,7.02
2023-03-21T06:46:53.112Z,7.18
2023-03-21T06:49:21.469Z,7.33
2023-03-21T06:51:50.158Z,7.48
2023-03-21T06:54:26.931Z,7.67
2023-03-21T06:57:06.676Z,7.90
2023-03-21T06:59:39.867Z,8.11
2023-03-21T07:02:11.718Z,8.27
2023-03-21T07:05:03.544Z,8.43
2023-03-21T07:07:32.144Z,8.45
2023-03-21T07:10:13.585Z,8.53
2023-03-21T07:12:49.918Z,8.70
2023-03-21T07:15:56.795Z,8.93
2023-03-21T07:18:31.121Z,9.12
2023-03-21T07:20:59.375Z,9.33
2023-03-21T07:23:29.441Z,9.55
2023-03-21T07:25:57.812Z,9.76
2023-03-21T07:28:26.702Z,9.91
2023-03-21T07:31:04.033Z,9.98
2023-03-21T07:33:33.052Z,9.90
2023-03-21T07:36:06.350Z,9.80
2023-03-21T07:38:35.850Z,9.69
2023-03-21T07:41:04.536Z,9.63
2023-03-21T07:43:37.093Z,9.64
2023-03-21T07:46:12.439Z,9.70
2023-03-21T07:48:42.599Z,9.78
2023-03-21T07:51:10.979Z,9.85
2023-03-21T07:53:43.737Z,9.91
2023-03-21T07:56:13.241Z,10.06
2023-03-21T07:58:45.103Z,10.34
2023-03-21T08:01:15.324Z,10.71
2023-03-21T08:03:46.638Z,11.05
2023-03-21T08:06:18.941Z,11.31
2023-03-21T08:08:50.851Z,11.52
2023-03-21T08:11:21.759Z,11.69
2023-03-21T08:13:52.451Z,11.87
2023-03-21T08:16:20.958Z,12.07
2023-03-21T08:18:52.100Z,12.23
2023-03-21T08:21:28.672Z,12.42
2023-03-21T08:23:57.152Z,12.64
2023-03-21T08:26:26.685Z,12.77
2023-03-21T08:28:56.162Z,12.76
2023-03-21T08:31:24.384Z,12.77
2023-03-21T08:33:56.923Z,12.82
2023-03-21T08:36:28.675Z,12.78
2023-03-21T08:39:05.432Z,12.76
2023-03-21T08:41:36.311Z,12.90
2023-03-21T08:44:06.117Z,13.14
2023-03-21T08:46:34.307Z,13.45
2023-03-21T08:49:07.776Z,13.85
2023-03-21T08:51:38.305Z,14.22
2023-03-21T08:54:06.987Z,14.46
2023-03-21T08:56:37.646Z,14.73
2023-03-21T08:59:06.214Z,15.02
2023-03-21T09:01:36.972Z,15.24
2023-03-21T09:04:08.184Z,15.40
2023-03-21T09:06:49.679Z,15.60
2023-03-21T09:09:18.205Z,15.82
2023-03-21T09:11:47.763Z,16.02
2023-03-21T09:14:23.837Z,16.25
2023-03-21T09:16:58.244Z,16.35
2023-03-21T09:19:28.377Z,16.45
2023-03-21T09:21:59.823Z,16.61
2023-03-21T09:24:32.190Z,16.73
2023-03-21T09:27:08.148Z,16.77
2023-03-21T09:29:38.275Z,16.78
2023-03-21T09:32:08.182Z,16.87
2023-03-21T09:34:41.370Z,17.03
2023-03-21T09:37:13.993Z,17.21
2023-03-21T09:39:46.936Z,17.38
2023-03-21T09:42:31.861Z,17.48
2023-03-21T09:45:02.801Z,17.68
2023-03-21T09:47:38.958Z,17.82
2023-03-21T09:50:20.420Z,18.05
2023-03-21T09:53:00.974Z,18.29
2023-03-21T09:55:34.660Z,18.42
2023-03-21T09:58:29.870Z,18.52
2023-03-21T10:01:11.415Z,18.65
2023-03-21T10:03:43.105Z,18.72
2023-03-21T10:06:15.495Z,18.77
2023-03-21T10:08:48.313Z,18.92
2023-03-21T10:11:21.845Z,19.02
2023-03-21T10:14:05.701Z,18.85
2023-03-21T10:16:36.476Z,18.77
2023-03-21T10:19:14.665Z,18.81
2023-03-21T10:22:01.323Z,18.94
2023-03-21T10:24:33.628Z,19.07
2023-03-21T10:27:03.752Z,19.19
2023-03-21T10:29:42.442Z,19.26
2023-03-21T10:32:14.349Z,19.25
2023-03-21T10:37:25.530Z,19.13
2023-03-21T10:40:02.219Z,19.10
2023-03-21T10:42:34.197Z,19.27
2023-03-21T10:45:09.065Z,19.46
2023-03-21T10:47:37.830Z,19.58
2023-03-21T10:50:09.929Z,19.68
2023-03-21T10:53:02.296Z,19.84
2023-03-21T10:55:34.979Z,20.07
2023-03-21T10:58:11.190Z,20.36
2023-03-21T11:00:44.742Z,20.47
2023-03-21T11:03:24.831Z,20.55
2023-03-21T11:06:06.642Z,20.55
2023-03-21T11:08:39.663Z,20.59
2023-03-21T11:11:12.872Z,20.88
2023-03-21T11:13:42.764Z,21.03
2023-03-21T11:16:34.826Z,21.17
2023-03-21T11:19:17.443Z,21.20
2023-03-21T11:21:47.661Z,21.18
2023-03-21T11:24:19.131Z,21.30
2023-03-21T11:26:51.339Z,21.42
2023-03-21T11:29:41.570Z,21.60
2023-03-21T11:32:26.028Z,21.68
2023-03-21T11:34:59.771Z,21.77
2023-03-21T11:37:43.423Z,21.91
2023-03-21T11:40:30.928Z,21.94
2023-03-21T11:43:06.143Z,22.21
2023-03-21T11:45:36.094Z,22.43
2023-03-21T11:48:13.304Z,22.62
2023-03-21T11:50:48.497Z,22.87
2023-03-21T11:54:04.868Z,23.00
2023-03-21T11:56:36.386Z,23.04
2023-03-21T11:59:28.207Z,22.87
2023-03-21T12:02:25.928Z,22.82
2023-03-21T12:05:20.225Z,22.87
2023-03-21T12:07:51.881Z,23.08
2023-03-21T12:10:52.008Z,23.26
2023-03-21T12:13:42.409Z,23.06
2023-03-21T12:16:23.654Z,22.86
2023-03-21T12:19:10.999Z,22.48
2023-03-21T12:22:02.321Z,21.97
2023-03-21T12:24:42.934Z,21.56
2023-03-21T12:27:15.868Z,21.27
2023-03-21T12:30:10.669Z,21.32
2023-03-21T12:32:46.022Z,21.55
2023-03-21T12:35:36.847Z,21.41
2023-03-21T12:38:13.183Z,21.23
2023-03-21T12:41:05.892Z,20.96
2023-03-21T12:44:03.156Z,20.62
2023-03-21T12:46:41.057Z,20.52
2023-03-21T12:49:34.685Z,20.52
2023-03-21T12:52:14.605Z,20.23
2023-03-21T12:54:48.882Z,19.70
2023-03-21T12:57:25.512Z,19.25
2023-03-21T13:00:13.402Z,19.00
2023-03-21T13:02:55.941Z,18.83
2023-03-21T13:05:29.441Z,18.72
2023-03-21T13:08:23.833Z,18.64
2023-03-21T13:10:56.106Z,18.56
2023-03-21T13:13:32.382Z,18.52
2023-03-21T13:16:05.426Z,18.52
2023-03-21T13:18:49.508Z,18.55
2023-03-21T13:21:44.709Z,18.59
2023-03-21T13:24:26.507Z,18.60
2023-03-21T13:27:07.786Z,18.66
2023-03-21T13:29:54.455Z,18.77
2023-03-21T13:32:29.993Z,18.83
2023-03-21T13:35:01.430Z,18.83
2023-03-21T13:37:35.506Z,18.76
2023-03-21T13:40:11.836Z,18.55
2023-03-21T13:42:46.400Z,18.27
2023-03-21T13:45:29.429Z,18.00
2023-03-21T13:48:06.155Z,17.83
2023-03-21T13:50:37.750Z,17.73
2023-03-21T13:53:19.404Z,17.63
2023-03-21T13:55:58.164Z,17.43
2023-03-21T13:58:40.903Z,17.18
2023-03-21T14:01:27.623Z,16.96
2023-03-21T14:04:02.773Z,16.83
2023-03-21T14:06:57.200Z,16.71
2023-03-21T14:09:42.088Z,16.54
2023-03-21T14:12:19.258Z,16.41
2023-03-21T14:14:56.408Z,16.30
2023-03-21T14:17:27.086Z,16.15
2023-03-21T14:20:14.352Z,16.04
2023-03-21T14:22:43.613Z,15.96
2023-03-21T14:25:15.710Z,15.89
2023-03-21T14:27:46.200Z,15.84
2023-03-21T14:30:27.690Z,15.79
2023-03-21T14:33:38.202Z,15.69
2023-03-21T14:36:11.077Z,15.56
2023-03-21T14:38:42.902Z,15.49
2023-03-21T14:41:25.927Z,15.42
2023-03-21T14:44:02.709Z,15.38
2023-03-21T14:46:31.252Z,15.32
2023-03-21T14:49:25.479Z,15.27
2023-03-21T14:51:57.118Z,15.19
2023-03-21T14:54:29.004Z,15.14
2023-03-21T14:57:05.242Z,15.06
2023-03-21T14:59:39.364Z,14.99
2023-03-21T15:02:37.861Z,14.94
2023-03-21T15:05:19.187Z,14.89
2023-03-21T15:08:02.481Z,14.87
2023-03-21T15:10:38.106Z,14.87
2023-03-21T15:13:17.895Z,14.88
2023-03-21T15:15:48.486Z,14.82
2023-03-21T15:18:19.471Z,14.79
2023-03-21T15:20:56.031Z,14.73
2023-03-21T15:23:44.863Z,14.66
2023-03-21T15:26:23.989Z,14.57
2023-03-21T15:28:58.323Z,14.51
2023-03-21T15:31:33.168Z,14.44
2023-03-21T15:34:01.934Z,14.36
2023-03-21T15:36:41.669Z,14.29
2023-03-21T15:39:13.749Z,14.22
2023-03-21T15:42:30.710Z,14.15
2023-03-21T15:45:03.857Z,14.07
2023-03-21T15:48:07.151Z,14.02
2023-03-21T15:50:45.680Z,13.94
2023-03-21T15:53:19.793Z,13.86
2023-03-21T15:55:58.362Z,13.79
2023-03-21T15:58:43.562Z,13.70
2023-03-21T16:01:22.457Z,13.56
2023-03-21T16:04:06.539Z,13.40
2023-03-21T16:06:36.755Z,13.20
2023-03-21T16:09:25.432Z,13.02
2023-03-21T16:11:59.035Z,12.87
2023-03-21T16:14:31.284Z,12.74
2023-03-21T16:16:59.359Z,12.59
2023-03-21T16:19:29.892Z,12.44
2023-03-21T16:22:01.548Z,12.26
2023-03-21T16:24:31.050Z,12.11
2023-03-21T16:27:11.236Z,11.98
2023-03-21T16:29:41.939Z,11.89
2023-03-21T16:32:17.987Z,11.88
2023-03-21T16:34:53.852Z,11.84
2023-03-21T16:37:22.743Z,11.79
2023-03-21T16:39:54.966Z,11.73
2023-03-21T16:42:23.616Z,11.65
2023-03-21T16:45:00.092Z,11.57
2023-03-21T16:47:31.526Z,11.54
2023-03-21T16:49:59.593Z,11.53
2023-03-21T16:52:29.536Z,11.51
2023-03-21T16:55:00.968Z,11.49
2023-03-21T16:57:30.266Z,11.43
2023-03-21T16:59:58.742Z,11.34
2023-03-21T17:02:28.912Z,11.26
2023-03-21T17:04:57.967Z,11.24
2023-03-21T17:07:28.796Z,11.26
2023-03-21T17:09:58.512Z,11.28
2023-03-21T17:12:30.166Z,11.28
2023-03-21T17:14:58.538Z,11.26
2023-03-21T17:17:29.633Z,11.19
2023-03-21T17:20:00.419Z,11.11
2023-03-21T17:22:28.697Z,11.09
2023-03-21T17:25:05.063Z,11.13
2023-03-21T17:27:34.309Z,11.17
2023-03-21T17:30:02.815Z,11.18
2023-03-21T17:32:32.760Z,11.18
2023-03-21T17:35:00.832Z,11.16
2023-03-21T17:37:35.761Z,11.12
2023-03-21T17:40:06.751Z,11.08
2023-03-21T17:42:37.041Z,11.09
2023-03-21T17:45:06.032Z,11.12
2023-03-21T17:47:37.515Z,11.15
2023-03-21T17:50:14.698Z,11.14
2023-03-21T17:52:46.004Z,11.11
2023-03-21T17:55:28.141Z,11.07
2023-03-21T17:57:57.927Z,11.04
2023-03-21T18:00:35.735Z,11.03
2023-03-21T18:03:04.210Z,11.09
2023-03-21T18:05:39.640Z,11.13
2023-03-21T18:08:12.726Z,11.13
2023-03-21T18:10:46.442Z,11.09
2023-03-21T18:13:14.519Z,11.01
2023-03-21T18:15:48.387Z,10.94
2023-03-21T18:18:16.903Z,10.91
2023-03-21T18:20:52.507Z,10.93
2023-03-21T18:23:22.163Z,10.94
2023-03-21T18:25:55.871Z,10.91
2023-03-21T18:28:39.621Z,10.85
2023-03-21T18:31:17.999Z,10.79
2023-03-21T18:33:49.682Z,10.70
2023-03-21T18:36:25.418Z,10.64
2023-03-21T18:38:56.835Z,10.62
2023-03-21T18:41:26.280Z,10.61
2023-03-21T18:44:12.972Z,10.58
2023-03-21T18:46:48.904Z,10.51
2023-03-21T18:50:05.874Z,10.44
2023-03-21T18:53:11.317Z,10.46
2023-03-21T18:55:47.921Z,10.45
2023-03-21T18:58:17.290Z,10.39
2023-03-21T19:00:47.531Z,10.33
2023-03-21T19:03:34.154Z,10.25
2023-03-21T19:06:06.418Z,10.20
2023-03-21T19:08:41.794Z,10.21
2023-03-21T19:11:12.159Z,10.19
2023-03-21T19:13:42.385Z,10.15
2023-03-21T19:16:11.594Z,10.09
2023-03-21T19:18:54.477Z,10.03
2023-03-21T19:21:24.825Z,9.96
2023-03-21T19:27:00.293Z,9.95
2023-03-21T19:29:30.001Z,9.91
2023-03-21T19:32:04.268Z,9.85
2023-03-21T19:34:40.018Z,9.77
2023-03-21T19:37:09.965Z,9.67
2023-03-21T19:39:48.510Z,9.54
2023-03-21T19:42:19.052Z,9.45
2023-03-21T19:44:49.110Z,9.43
2023-03-21T19:47:18.164Z,9.42
2023-03-21T19:50:37.292Z,9.40
2023-03-21T19:52:42.040Z,9.37
2023-03-21T19:55:12.585Z,9.32
2023-03-21T19:57:42.824Z,9.26
2023-03-21T20:00:15.101Z,9.24
2023-03-21T20:02:45.621Z,9.27
2023-03-21T20:05:19.294Z,9.31
2023-03-21T20:07:48.692Z,9.35
2023-03-21T20:10:22.095Z,9.32
2023-03-21T20:12:51.748Z,9.27
2023-03-21T20:15:28.940Z,9.21
2023-03-21T20:18:02.181Z,9.15
2023-03-21T20:20:39.331Z,9.10
2023-03-21T20:23:16.010Z,9.04
2023-03-21T20:25:47.389Z,8.97
2023-03-21T20:28:25.019Z,8.90
2023-03-21T20:31:03.651Z,8.83
2023-03-21T20:33:33.838Z,8.81
2023-03-21T20:36:38.619Z,8.80
2023-03-21T20:39:05.399Z,8.79
2023-03-21T20:41:41.159Z,8.76
2023-03-21T20:47:07.417Z,8.65
2023-03-21T20:49:40.371Z,8.59
2023-03-21T20:54:58.190Z,8.59
2023-03-21T20:57:38.603Z,8.64
2023-03-21T21:00:19.532Z,8.68
2023-03-21T21:02:50.731Z,8.71
2023-03-21T21:05:30.684Z,8.71
2023-03-21T21:08:05.664Z,8.69
2023-03-21T21:10:35.040Z,8.73
2023-03-21T21:13:09.235Z,8.81
2023-03-21T21:15:42.344Z,8.86
2023-03-21T21:18:21.091Z,8.87
2023-03-21T21:20:54.487Z,8.84
2023-03-21T21:23:33.068Z,8.78
2023-03-21T21:26:05.537Z,8.75
2023-03-21T21:28:43.448Z,8.70
2023-03-21T21:31:18.552Z,8.67
2023-03-21T21:33:50.436Z,8.61
2023-03-21T21:36:20.967Z,8.53
2023-03-21T21:38:53.083Z,8.41
2023-03-21T21:41:34.538Z,8.32
2023-03-21T21:44:04.536Z,8.26
2023-03-21T21:46:34.149Z,8.24
2023-03-21T21:49:06.928Z,8.15
2023-03-21T21:51:42.067Z,8.03
2023-03-21T21:54:10.236Z,7.92
2023-03-21T21:56:43.531Z,7.88
2023-03-21T21:59:21.877Z,7.85
2023-03-21T22:01:59.026Z,7.81
2023-03-21T22:04:29.248Z,7.72
2023-03-21T22:06:57.529Z,7.60
2023-03-21T22:09:27.236Z,7.50
2023-03-21T22:11:58.545Z,7.42
2023-03-21T22:14:31.789Z,7.39
2023-03-21T22:17:05.350Z,7.37
2023-03-21T22:19:35.088Z,7.31
2023-03-21T22:22:06.860Z,7.21
2023-03-21T22:24:38.918Z,7.12
2023-03-21T22:27:18.606Z,7.09
2023-03-21T22:29:53.387Z,7.09
2023-03-21T22:32:24.029Z,7.12
2023-03-21T22:34:53.529Z,7.19
2023-03-21T22:37:21.809Z,7.27
2023-03-21T22:39:55.653Z,7.31
2023-03-21T22:42:31.366Z,7.31
2023-03-21T22:45:07.331Z,7.29
2023-03-21T22:47:37.389Z,7.26
2023-03-21T22:50:07.982Z,7.22
2023-03-21T22:52:40.556Z,7.15
2023-03-21T22:55:15.899Z,7.10
2023-03-21T22:57:48.681Z,7.04
2023-03-21T23:00:24.529Z,7.03
2023-03-21T23:02:55.265Z,7.05
2023-03-21T23:05:23.748Z,7.08
2023-03-21T23:08:00.148Z,7.10
2023-03-21T23:10:29.105Z,7.10
2023-03-21T23:13:02.295Z,7.08
2023-03-21T23:15:31.807Z,7.11
2023-03-21T23:18:12.012Z,7.14
2023-03-21T23:20:40.414Z,7.15
2023-03-21T23:23:14.001Z,7.15
2023-03-21T23:25:44.159Z,7.09
2023-03-21T23:28:28.922Z,7.00
2023-03-21T23:31:03.888Z,6.97
2023-03-21T23:33:36.025Z,6.96
2023-03-21T23:36:07.284Z,6.94
2023-03-21T23:38:35.447Z,6.89
2023-03-21T23:41:14.200Z,6.86
2023-03-21T23:43:45.146Z,6.90
2023-03-21T23:46:15.336Z,6.96
2023-03-21T23:48:50.566Z,7.02
2023-03-21T23:51:22.326Z,7.06
2023-03-21T23:53:53.704Z,7.08
2023-03-21T23:56:29.527Z,7.16
2023-03-21T23:59:02.616Z,7.26
